Unadilla, Georgia
Current Conditions -  °F | °C
As of 3:55 AM on Sunday 26 Oct 2014 (Local Time) from KPXE Reporting Station
Clear Clear  
Wind Chill: 60°   Ceiling: Unl
Heat Index: 60°   Visibility: 10mi
Dew Point: 51°   Wind: 3mph
Humidity: 72%   Direction: 290°WNW
Pressure: 29.99"   Gusts: NA
Location:  32.26°N, 83.74°W
Report Text: KPXE 260755Z AUTO 29003KT 10SM CLR 15/10 A2999 RMK AO2 T01530103
Loading
Personal Weather Stations






























Interactive Weather Map
Tropical Storm Tracking
New forecast layout! Learn more

10-Day Weather Forecast

Advertisements
Track Severe Weather on mobile